Time;durP1;ratioP1;P1;durP2;ratioP2;P2;SDS_P1;SDS_P2;PMS_P1;PMS_P2;Temp;Humidity;BMP_temperature;BMP_pressure;BME280_temperature;BME280_humidity;BME280_pressure;Samples;Min_cycle;Max_cycle;Signal;HPM_P1;HPM_P2
2021/01/13 00:00:25;;;;;;;5.15;1.58;;;4.00;78.70;;;;;;4987265;28;20125;-87
2021/01/13 00:02:51;;;;;;;3.33;1.30;;;4.00;78.80;;;;;;4983501;28;20387;-87
2021/01/13 00:05:18;;;;;;;2.58;0.93;;;4.00;78.80;;;;;;4987326;28;20034;-87
2021/01/13 00:07:44;;;;;;;4.20;1.20;;;4.10;78.90;;;;;;4986334;28;20485;-87
2021/01/13 00:10:11;;;;;;;2.90;1.10;;;4.00;78.70;;;;;;4984088;28;20094;-87
2021/01/13 00:12:37;;;;;;;1.83;0.90;;;4.10;78.80;;;;;;4988943;28;20030;-86
2021/01/13 00:15:05;;;;;;;4.18;1.42;;;4.10;78.90;;;;;;4968273;28;20161;-86
2021/01/13 00:17:31;;;;;;;3.75;1.00;;;4.00;78.70;;;;;;4989123;28;20031;-87
2021/01/13 00:19:56;;;;;;;3.50;1.20;;;4.10;78.80;;;;;;4985047;28;20089;-87
2021/01/13 00:22:24;;;;;;;3.90;1.40;;;4.00;78.80;;;;;;4984683;28;20026;-85
2021/01/13 00:24:50;;;;;;;3.13;1.15;;;4.00;78.80;;;;;;4972807;28;20026;-86
2021/01/13 00:27:21;;;;;;;3.55;1.08;;;4.00;78.80;;;;;;4987636;28;20030;-85
2021/01/13 00:29:50;;;;;;;2.47;0.82;;;4.00;78.80;;;;;;4988850;28;20021;-86
2021/01/13 00:32:17;;;;;;;2.63;0.98;;;4.00;78.80;;;;;;4988038;28;20053;-86
2021/01/13 00:34:42;;;;;;;2.65;1.00;;;4.00;78.80;;;;;;4974982;28;20022;-86
2021/01/13 00:37:08;;;;;;;3.70;1.00;;;4.00;78.90;;;;;;4991327;28;20667;-87
2021/01/13 00:39:35;;;;;;;1.88;0.90;;;4.10;78.90;;;;;;4990723;28;20049;-87
2021/01/13 00:42:02;;;;;;;2.65;1.05;;;4.10;78.90;;;;;;4993000;28;20098;-86
2021/01/13 00:44:28;;;;;;;3.83;1.48;;;4.10;78.90;;;;;;4979119;28;20026;-87
2021/01/13 00:46:53;;;;;;;3.65;1.00;;;4.10;78.80;;;;;;4998100;28;20018;-87
2021/01/13 00:49:19;;;;;;;4.03;1.20;;;4.00;78.80;;;;;;4992714;28;20050;-87
2021/01/13 00:51:44;;;;;;;2.85;1.23;;;4.00;78.90;;;;;;4975561;28;20022;-87
2021/01/13 00:54:11;;;;;;;2.80;1.00;;;4.00;78.90;;;;;;4981799;28;20550;-87
2021/01/13 00:56:48;;;;;;;2.47;1.08;;;4.00;78.90;;;;;;4990594;28;20448;-87
2021/01/13 00:59:14;;;;;;;2.08;0.95;;;4.00;79.00;;;;;;4992260;28;20076;-87
2021/01/13 01:01:42;;;;;;;5.85;1.08;;;4.00;78.90;;;;;;4991735;28;20068;-86
2021/01/13 01:04:10;;;;;;;4.47;1.30;;;4.10;79.10;;;;;;4992520;28;20021;-87
2021/01/13 01:06:36;;;;;;;4.03;1.30;;;4.00;79.00;;;;;;4980203;28;20022;-87
2021/01/13 01:09:04;;;;;;;3.15;1.00;;;4.00;79.50;;;;;;4992076;28;20030;-87
2021/01/13 01:11:32;;;;;;;3.58;1.10;;;4.10;78.90;;;;;;4992705;28;20022;-86
2021/01/13 01:13:58;;;;;;;3.22;1.10;;;4.10;78.90;;;;;;4992631;28;20054;-87
2021/01/13 01:16:39;;;;;;;2.72;1.20;;;4.10;78.80;;;;;;4976794;28;20124;-87
2021/01/13 01:19:09;;;;;;;2.28;0.90;;;4.10;78.80;;;;;;4999062;28;20026;-87
2021/01/13 01:21:44;;;;;;;1.85;0.85;;;4.10;78.80;;;;;;4999986;28;20038;-85
2021/01/13 01:24:10;;;;;;;2.13;0.98;;;4.10;78.80;;;;;;4996251;28;20452;-85
2021/01/13 01:26:46;;;;;;;4.60;1.30;;;4.10;78.80;;;;;;4992246;28;20034;-85
2021/01/13 01:29:11;;;;;;;2.38;1.10;;;4.10;78.80;;;;;;4987497;28;20038;-86
2021/01/13 01:31:37;;;;;;;6.32;1.30;;;4.10;78.80;;;;;;4992350;28;20031;-86
2021/01/13 01:34:03;;;;;;;1.70;1.05;;;4.10;78.80;;;;;;4995157;28;20493;-85
2021/01/13 01:36:28;;;;;;;3.33;0.80;;;4.10;78.90;;;;;;4983839;28;20089;-86
2021/01/13 01:38:54;;;;;;;3.67;1.10;;;4.00;79.00;;;;;;4976765;28;20069;-84
2021/01/13 01:41:19;;;;;;;5.00;1.25;;;4.00;79.10;;;;;;4995044;28;20041;-86
2021/01/13 01:43:45;;;;;;;2.20;1.20;;;4.00;79.00;;;;;;4993760;28;20065;-86
2021/01/13 01:46:12;;;;;;;4.75;1.40;;;4.00;79.10;;;;;;4992025;28;20058;-86
2021/01/13 01:48:54;;;;;;;3.63;1.20;;;4.00;79.20;;;;;;4979831;28;20040;-85
2021/01/13 01:51:26;;;;;;;3.00;1.02;;;4.00;79.20;;;;;;4991030;28;20054;-85
2021/01/13 01:54:11;;;;;;;4.75;1.23;;;4.00;79.20;;;;;;4974109;28;20027;-86
2021/01/13 01:56:38;;;;;;;3.00;0.80;;;4.00;79.20;;;;;;4990529;28;20085;-86
2021/01/13 01:59:07;;;;;;;2.90;0.80;;;4.00;79.20;;;;;;4991102;28;20075;-85
2021/01/13 02:01:40;;;;;;;1.42;0.80;;;4.00;79.10;;;;;;4990492;28;20032;-86
2021/01/13 02:04:30;;;;;;;5.05;1.20;;;4.00;79.20;;;;;;4991629;28;20030;-85
2021/01/13 02:06:58;;;;;;;2.15;0.85;;;4.00;79.20;;;;;;4981580;28;20015;-86
2021/01/13 02:09:29;;;;;;;1.88;0.90;;;4.10;79.20;;;;;;4983439;28;20034;-86
2021/01/13 02:11:56;;;;;;;2.05;0.85;;;4.00;79.20;;;;;;4991916;28;20030;-86
2021/01/13 02:14:23;;;;;;;2.45;0.80;;;4.00;79.20;;;;;;4990793;28;20030;-86
2021/01/13 02:16:51;;;;;;;1.60;0.68;;;4.00;79.30;;;;;;4985490;28;20097;-86
2021/01/13 02:19:59;;;;;;;1.83;1.23;;;4.00;79.50;;;;;;4983815;28;20027;-87
2021/01/13 02:22:26;;;;;;;2.13;1.00;;;4.00;79.60;;;;;;4974127;28;20069;-86
2021/01/13 02:24:55;;;;;;;3.35;1.13;;;4.00;79.60;;;;;;4987156;28;20033;-87
2021/01/13 02:27:53;;;;;;;2.08;0.75;;;3.90;79.60;;;;;;4974100;28;20034;-87
2021/01/13 02:30:24;;;;;;;3.50;0.80;;;4.00;79.70;;;;;;4990877;28;20161;-85
2021/01/13 02:32:53;;;;;;;4.85;0.95;;;3.90;79.70;;;;;;4989313;28;20131;-86
2021/01/13 02:35:27;;;;;;;3.08;0.93;;;4.00;79.80;;;;;;4974022;28;20045;-86
2021/01/13 02:37:58;;;;;;;2.60;0.65;;;3.90;79.80;;;;;;4973077;28;20037;-85
2021/01/13 02:40:27;;;;;;;3.47;0.88;;;4.00;79.80;;;;;;4989857;28;20503;-86
2021/01/13 02:43:08;;;;;;;1.63;0.70;;;4.00;79.70;;;;;;4983958;28;20068;-86
2021/01/13 02:45:43;;;;;;;2.20;0.80;;;4.00;79.80;;;;;;4982144;28;20030;-85
2021/01/13 02:48:19;;;;;;;3.35;1.05;;;4.00;79.70;;;;;;4989503;28;20044;-86
2021/01/13 02:50:59;;;;;;;3.03;0.70;;;4.00;79.80;;;;;;4987392;28;20022;-85
2021/01/13 02:53:31;;;;;;;3.15;0.60;;;4.10;79.80;;;;;;4992680;28;20568;-84
2021/01/13 02:55:56;;;;;;;2.88;1.20;;;4.10;79.80;;;;;;4999154;28;20042;-85
2021/01/13 02:58:32;;;;;;;5.88;1.35;;;4.00;79.70;;;;;;4963278;28;20026;-85
2021/01/13 03:00:58;;;;;;;3.08;1.10;;;4.00;79.80;;;;;;4988200;28;20054;-85
2021/01/13 03:03:24;;;;;;;2.85;1.17;;;4.10;79.80;;;;;;4988130;28;20018;-85
2021/01/13 03:05:51;;;;;;;3.35;0.93;;;4.10;79.80;;;;;;4989966;28;20374;-85
2021/01/13 03:08:17;;;;;;;2.35;1.13;;;4.10;79.70;;;;;;4989549;28;20494;-86
2021/01/13 03:10:47;;;;;;;4.72;1.15;;;4.10;79.80;;;;;;4990028;28;20149;-86
2021/01/13 03:13:14;;;;;;;2.60;1.00;;;4.10;79.80;;;;;;4990895;28;20057;-86
2021/01/13 03:15:40;;;;;;;1.80;0.95;;;4.00;79.70;;;;;;4990340;28;20018;-86
2021/01/13 03:18:07;;;;;;;2.85;1.25;;;4.10;79.80;;;;;;4970305;28;20022;-85
2021/01/13 03:20:49;;;;;;;4.47;1.30;;;4.00;79.80;;;;;;4989048;28;20053;-85
2021/01/13 03:23:30;;;;;;;4.65;1.10;;;4.00;80.00;;;;;;4982202;28;20411;-86
2021/01/13 03:26:02;;;;;;;1.55;0.90;;;4.00;80.00;;;;;;4990955;28;20027;-86
2021/01/13 03:28:40;;;;;;;2.30;1.02;;;4.00;80.00;;;;;;4972452;28;20026;-86
2021/01/13 03:31:07;;;;;;;3.22;1.02;;;4.00;79.90;;;;;;4985984;28;20028;-85
2021/01/13 03:34:00;;;;;;;2.88;1.10;;;4.00;80.00;;;;;;4979237;28;20531;-86
2021/01/13 03:36:40;;;;;;;3.67;1.17;;;3.90;80.00;;;;;;4990160;28;20551;-86
2021/01/13 03:39:07;;;;;;;3.10;1.00;;;3.90;80.00;;;;;;4985885;28;20518;-86
2021/01/13 03:41:54;;;;;;;3.55;1.00;;;4.00;80.10;;;;;;4990862;28;20026;-86
2021/01/13 03:44:27;;;;;;;3.75;1.00;;;4.00;80.10;;;;;;4998044;28;20049;-85
2021/01/13 03:46:56;;;;;;;;;;;4.00;80.10;;;;;;4984950;28;20097;-86
2021/01/13 03:49:31;;;;;;;4.95;1.10;;;4.00;80.00;;;;;;4985312;28;19957;-85
2021/01/13 03:52:09;;;;;;;4.10;1.77;;;3.90;80.20;;;;;;4989815;28;20713;-85
2021/01/13 03:54:36;;;;;;;2.58;1.00;;;3.90;80.40;;;;;;4986055;28;20034;-86
2021/01/13 03:57:06;;;;;;;4.03;1.05;;;4.00;80.40;;;;;;4989131;28;20038;-86
2021/01/13 03:59:53;;;;;;;3.20;1.00;;;4.00;80.50;;;;;;4979457;28;20022;-86
2021/01/13 04:02:24;;;;;;;1.85;0.80;;;4.10;80.40;;;;;;4985438;28;20058;-86
2021/01/13 04:05:19;;;;;;;3.03;0.90;;;4.10;80.30;;;;;;4972589;28;20109;-85
2021/01/13 04:07:46;;;;;;;2.22;0.88;;;4.20;80.40;;;;;;4990316;28;20030;-86
2021/01/13 04:10:14;;;;;;;1.92;0.80;;;4.30;80.20;;;;;;4994741;28;20026;-85
2021/01/13 04:12:56;;;;;;;4.53;0.98;;;4.30;80.20;;;;;;4986163;28;20037;-86
2021/01/13 04:15:35;;;;;;;2.95;0.88;;;4.30;80.20;;;;;;4988829;28;20027;-85
2021/01/13 04:18:04;;;;;;;4.95;1.00;;;4.30;80.30;;;;;;4991852;28;20787;-87
2021/01/13 04:20:30;;;;;;;3.35;1.00;;;4.30;80.40;;;;;;4993802;28;20026;-87
2021/01/13 04:22:56;;;;;;;3.17;1.20;;;4.30;80.50;;;;;;4986353;28;20162;-87
2021/01/13 04:25:22;;;;;;;4.45;1.00;;;4.30;81.20;;;;;;4984366;28;20487;-86
2021/01/13 04:27:48;;;;;;;4.53;1.13;;;4.30;80.70;;;;;;4973857;28;20026;-86
2021/01/13 04:30:15;;;;;;;3.38;1.10;;;4.30;80.70;;;;;;4999949;28;20027;-85
2021/01/13 04:32:40;;;;;;;5.72;1.20;;;4.30;80.80;;;;;;5000008;28;20534;-86
2021/01/13 04:35:07;;;;;;;2.38;0.90;;;4.30;80.80;;;;;;4993592;28;20046;-86
2021/01/13 04:37:35;;;;;;;4.70;1.10;;;4.40;80.90;;;;;;4993705;28;20089;-86
2021/01/13 04:40:30;;;;;;;4.97;1.00;;;4.40;80.90;;;;;;4994874;28;20018;-86
2021/01/13 04:43:04;;;;;;;3.25;1.00;;;4.30;80.90;;;;;;5000483;28;20033;-86
2021/01/13 04:45:41;;;;;;;4.10;1.00;;;4.40;81.00;;;;;;4994136;28;20144;-86
2021/01/13 04:48:13;;;;;;;1.48;0.70;;;4.30;81.10;;;;;;4994838;28;20026;-85
2021/01/13 04:50:41;;;;;;;3.13;0.80;;;4.40;81.20;;;;;;4998907;28;20037;-86
2021/01/13 04:53:16;;;;;;;2.22;0.80;;;4.30;81.20;;;;;;4992464;28;20030;-86
2021/01/13 04:55:52;;;;;;;1.00;0.70;;;4.40;81.30;;;;;;4982323;28;20477;-87
2021/01/13 04:58:20;;;;;;;2.15;0.80;;;4.40;81.50;;;;;;4992632;28;20157;-87
2021/01/13 05:01:23;;;;;;;3.33;0.70;;;4.40;82.20;;;;;;4992368;28;20105;-85
2021/01/13 05:04:09;;;;;;;3.85;0.93;;;4.40;81.70;;;;;;4991688;28;20637;-84
2021/01/13 05:07:23;;;;;;;3.90;1.10;;;4.40;81.70;;;;;;4972834;28;20034;-85
2021/01/13 05:10:10;;;;;;;2.90;0.90;;;4.40;81.80;;;;;;4913070;29;20386;-85
2021/01/13 05:12:48;;;;;;;3.63;1.00;;;4.40;81.90;;;;;;4968160;28;20052;-84
2021/01/13 05:15:34;;;;;;;4.78;1.10;;;4.40;82.00;;;;;;4973456;28;20691;-85
2021/01/13 05:18:11;;;;;;;1.77;0.73;;;4.40;82.00;;;;;;4983293;28;20122;-86
2021/01/13 05:20:39;;;;;;;2.05;0.80;;;4.40;82.10;;;;;;4975803;28;20133;-86
2021/01/13 05:23:06;;;;;;;4.40;1.15;;;4.40;82.30;;;;;;4989573;28;20019;-85
2021/01/13 05:25:44;;;;;;;3.15;0.80;;;4.30;82.20;;;;;;4992047;28;20050;-86
2021/01/13 05:28:16;;;;;;;6.07;1.27;;;4.30;82.20;;;;;;4968600;28;20035;-86
2021/01/13 05:30:50;;;;;;;2.00;0.70;;;4.30;82.30;;;;;;4973764;28;20034;-86
2021/01/13 05:33:22;;;;;;;2.28;0.95;;;4.20;82.40;;;;;;4991667;28;20034;-84
2021/01/13 05:35:57;;;;;;;3.90;1.10;;;4.20;82.50;;;;;;4979364;28;20492;-85
2021/01/13 05:39:03;;;;;;;2.13;0.90;;;4.20;82.60;;;;;;4972992;28;20042;-85
2021/01/13 05:41:29;;;;;;;3.28;1.02;;;4.20;82.70;;;;;;4974795;28;20118;-87
2021/01/13 05:43:55;;;;;;;3.28;0.90;;;4.20;82.70;;;;;;5002578;28;20022;-88
2021/01/13 05:46:21;;;;;;;2.83;1.00;;;4.20;82.70;;;;;;4996724;28;20037;-87
2021/01/13 05:48:49;;;;;;;4.65;1.20;;;4.10;82.70;;;;;;4989452;28;20022;-89
2021/01/13 05:51:15;;;;;;;3.20;1.00;;;4.10;82.90;;;;;;4967368;28;20327;-85
2021/01/13 05:53:51;;;;;;;5.28;1.40;;;4.00;83.00;;;;;;4989845;28;20487;-83
2021/01/13 05:56:20;;;;;;;6.22;1.10;;;4.00;83.20;;;;;;4979902;28;20042;-92
2021/01/13 05:58:46;;;;;;;4.65;1.25;;;4.00;83.20;;;;;;4992782;28;20464;-92
2021/01/13 06:01:53;;;;;;;3.00;0.88;;;4.00;83.30;;;;;;4975158;28;20345;-93
2021/01/13 06:04:21;;;;;;;4.95;1.20;;;4.00;83.40;;;;;;5005111;28;20026;-90
2021/01/13 06:06:57;;;;;;;2.55;0.82;;;3.90;83.30;;;;;;5026156;28;20009;-92
2021/01/13 06:09:23;;;;;;;5.20;1.00;;;3.90;83.40;;;;;;4990016;28;20117;-94
2021/01/13 06:11:52;;;;;;;3.78;1.10;;;4.00;83.40;;;;;;4997143;28;20033;-94
2021/01/13 06:14:26;;;;;;;2.97;1.00;;;3.90;83.40;;;;;;5003663;28;20133;-95
2021/01/13 06:16:53;;;;;;;4.97;1.33;;;4.00;84.10;;;;;;5019175;28;20041;-94
2021/01/13 06:19:20;;;;;;;3.38;1.08;;;3.90;83.50;;;;;;5012191;28;20035;-93
2021/01/13 06:21:47;;;;;;;4.32;1.45;;;3.90;83.50;;;;;;5008897;28;20022;-92
2021/01/13 06:24:14;;;;;;;4.10;1.25;;;3.90;83.50;;;;;;5015255;28;20046;-94
2021/01/13 06:26:52;;;;;;;6.38;1.40;;;3.90;83.60;;;;;;5010001;28;20025;-89
2021/01/13 06:29:23;;;;;;;2.47;1.00;;;3.90;83.60;;;;;;5002747;28;20021;-92
2021/01/13 06:31:56;;;;;;;3.75;1.30;;;4.00;83.60;;;;;;5004981;28;20025;-91
2021/01/13 06:34:29;;;;;;;4.40;1.20;;;3.90;83.50;;;;;;5017193;28;20037;-93
2021/01/13 06:37:21;;;;;;;3.30;1.10;;;3.90;83.50;;;;;;5009003;28;20046;-92
2021/01/13 06:39:46;;;;;;;5.95;1.50;;;4.00;83.50;;;;;;4996749;28;20050;-92
2021/01/13 06:42:12;;;;;;;3.20;1.00;;;3.90;83.40;;;;;;4990108;28;20038;-93
2021/01/13 06:44:46;;;;;;;5.40;1.27;;;3.90;83.40;;;;;;4992552;28;20073;-93
2021/01/13 06:47:12;;;;;;;4.38;1.17;;;3.90;83.40;;;;;;4993181;28;20030;-94
2021/01/13 06:49:37;;;;;;;5.70;1.67;;;3.90;83.30;;;;;;4992199;28;20042;-92
2021/01/13 06:52:07;;;;;;;4.68;1.40;;;3.90;83.30;;;;;;4990672;28;20033;-93
2021/01/13 06:54:33;;;;;;;5.13;1.70;;;3.90;83.30;;;;;;4994212;28;20114;-92
2021/01/13 06:57:01;;;;;;;2.83;1.08;;;3.90;83.20;;;;;;4994753;28;20050;-93
2021/01/13 06:59:27;;;;;;;3.90;1.23;;;3.90;83.20;;;;;;4978058;28;20026;-93
2021/01/13 07:01:57;;;;;;;2.88;1.00;;;3.90;83.20;;;;;;4993278;28;20027;-93
2021/01/13 07:04:24;;;;;;;4.95;1.20;;;3.90;83.80;;;;;;4992937;28;20014;-92
2021/01/13 07:07:07;;;;;;;4.72;1.40;;;3.90;83.10;;;;;;4975684;28;20121;-93
2021/01/13 07:09:36;;;;;;;3.67;1.10;;;3.90;83.10;;;;;;4992197;28;20484;-93
2021/01/13 07:12:12;;;;;;;4.18;1.20;;;3.80;83.00;;;;;;4991287;28;20817;-93
2021/01/13 07:14:43;;;;;;;5.45;1.40;;;3.80;83.00;;;;;;4979800;28;20038;-93
2021/01/13 07:17:15;;;;;;;5.03;1.40;;;3.80;83.00;;;;;;4990991;28;20034;-93
2021/01/13 07:19:45;;;;;;;5.70;1.30;;;3.80;83.00;;;;;;4992057;28;20045;-93
2021/01/13 07:22:12;;;;;;;6.30;1.67;;;3.80;83.00;;;;;;4992519;28;20027;-93
2021/01/13 07:24:41;;;;;;;6.03;1.33;;;3.80;82.90;;;;;;4978571;28;20049;-93
2021/01/13 07:27:08;;;;;;;4.65;0.90;;;3.80;82.80;;;;;;4996905;28;20018;-92
2021/01/13 07:29:34;;;;;;;2.60;0.90;;;3.70;82.70;;;;;;4993323;28;20030;-93
2021/01/13 07:31:59;;;;;;;3.30;1.20;;;3.80;82.70;;;;;;4992808;28;20503;-93
2021/01/13 07:34:43;;;;;;;4.10;1.38;;;3.70;82.70;;;;;;4991813;28;20038;-93
2021/01/13 07:37:19;;;;;;;3.95;1.20;;;3.70;82.70;;;;;;4979782;28;20061;-93
2021/01/13 07:39:51;;;;;;;7.10;1.70;;;3.70;82.60;;;;;;4997900;28;20460;-93
2021/01/13 07:42:39;;;;;;;6.32;1.42;;;3.70;82.50;;;;;;5016488;28;20042;-93
2021/01/13 07:45:06;;;;;;;3.85;1.30;;;3.70;82.40;;;;;;5000984;28;20045;-93
2021/01/13 07:47:56;;;;;;;4.30;1.23;;;3.70;82.50;;;;;;5000139;28;20057;-93
2021/01/13 07:50:22;;;;;;;6.63;1.25;;;3.70;82.40;;;;;;4999603;28;20030;-93
2021/01/13 07:52:50;;;;;;;5.78;1.42;;;3.70;82.20;;;;;;5002206;28;20033;-92
2021/01/13 07:55:16;;;;;;;4.88;1.20;;;3.70;82.80;;;;;;4984741;28;20037;-92
2021/01/13 07:57:53;;;;;;;4.85;1.40;;;3.70;82.20;;;;;;5001557;28;20496;-94
2021/01/13 08:00:48;;;;;;;3.22;1.00;;;3.70;82.10;;;;;;4992007;28;20026;-93
2021/01/13 08:03:45;;;;;;;3.88;1.30;;;3.70;82.00;;;;;;4980426;28;20031;-92
2021/01/13 08:06:30;;;;;;;4.85;1.50;;;3.80;82.10;;;;;;4991312;28;20124;-90
2021/01/13 08:09:04;;;;;;;4.05;1.70;;;3.70;81.90;;;;;;4974893;28;20749;-90
2021/01/13 08:11:52;;;;;;;4.53;1.10;;;3.70;81.90;;;;;;4995539;28;20487;-93
2021/01/13 08:14:54;;;;;;;4.53;1.10;;;3.70;81.90;;;;;;4997416;28;20034;-93
2021/01/13 08:17:47;;;;;;;2.50;1.10;;;3.70;81.90;;;;;;4989880;28;20108;-92
2021/01/13 08:20:50;;;;;;;5.15;1.20;;;3.70;81.80;;;;;;4981008;28;20023;-92
2021/01/13 08:23:26;;;;;;;3.08;1.20;;;3.80;81.90;;;;;;4991413;28;20156;-93
2021/01/13 08:26:02;;;;;;;3.60;1.70;;;3.80;81.80;;;;;;4974319;28;20034;-93
2021/01/13 08:28:37;;;;;;;4.50;1.40;;;3.80;81.90;;;;;;4991718;28;20014;-92
2021/01/13 08:31:04;;;;;;;2.05;1.30;;;3.80;81.90;;;;;;4958830;28;20634;-94
2021/01/13 08:33:36;;;;;;;5.13;1.50;;;3.90;81.90;;;;;;4998542;28;20049;-94
2021/01/13 08:36:13;;;;;;;2.90;1.33;;;3.80;81.80;;;;;;4993117;28;20562;-93
2021/01/13 08:39:14;;;;;;;4.80;1.58;;;3.80;81.80;;;;;;4984440;28;20472;-93
2021/01/13 08:41:42;;;;;;;4.15;1.30;;;3.90;81.80;;;;;;4991639;28;20026;-93
2021/01/13 08:44:13;;;;;;;4.65;1.80;;;3.90;81.70;;;;;;4975298;28;20023;-92
2021/01/13 08:47:00;;;;;;;3.38;1.30;;;3.90;81.60;;;;;;4991708;28;20098;-93
2021/01/13 08:49:28;;;;;;;3.50;1.33;;;3.90;81.50;;;;;;4974089;28;20162;-92
2021/01/13 08:52:16;;;;;;;4.35;1.50;;;4.00;81.50;;;;;;4991204;28;20452;-92
2021/01/13 08:54:44;;;;;;;3.63;1.40;;;4.00;81.40;;;;;;4992213;28;20517;-92
2021/01/13 08:57:12;;;;;;;3.72;1.20;;;4.10;81.20;;;;;;4985400;28;20480;-92
2021/01/13 08:59:46;;;;;;;4.00;1.80;;;4.10;81.20;;;;;;4977926;28;20021;-91
2021/01/13 09:02:14;;;;;;;5.25;1.63;;;4.10;81.00;;;;;;4995193;28;20073;-92
2021/01/13 09:04:59;;;;;;;5.25;1.50;;;4.20;81.00;;;;;;4977226;28;20019;-92
2021/01/13 09:07:43;;;;;;;3.65;1.67;;;4.20;80.90;;;;;;4996972;28;20038;-92
2021/01/13 09:10:11;;;;;;;4.18;1.77;;;4.30;80.80;;;;;;4994877;28;20038;-92
2021/01/13 09:12:42;;;;;;;4.68;1.58;;;4.20;80.60;;;;;;4980391;28;20027;-92
2021/01/13 09:15:08;;;;;;;4.90;1.45;;;4.30;80.70;;;;;;4982989;28;20026;-92
2021/01/13 09:17:34;;;;;;;4.82;1.65;;;4.30;80.60;;;;;;5012704;28;20025;-92
2021/01/13 09:20:02;;;;;;;3.80;1.50;;;4.30;80.60;;;;;;4997540;28;20137;-91
2021/01/13 09:22:47;;;;;;;4.75;1.90;;;4.40;80.50;;;;;;4995899;28;20022;-92
2021/01/13 09:25:16;;;;;;;6.88;2.40;;;4.50;80.30;;;;;;4977532;28;20026;-92
2021/01/13 09:27:51;;;;;;;6.00;2.15;;;4.60;80.20;;;;;;4978432;28;20588;-92
2021/01/13 09:30:27;;;;;;;5.80;1.63;;;4.60;80.00;;;;;;4985104;28;20034;-91
2021/01/13 09:32:55;;;;;;;4.50;1.63;;;4.70;79.90;;;;;;5000788;28;20018;-91
2021/01/13 09:35:33;;;;;;;6.18;1.63;;;4.80;79.80;;;;;;5014164;28;20110;-92
2021/01/13 09:38:05;;;;;;;2.78;1.50;;;4.90;79.60;;;;;;4991602;28;20514;-92
2021/01/13 09:40:52;;;;;;;4.95;1.50;;;4.90;79.40;;;;;;5009866;28;20027;-92
2021/01/13 09:43:38;;;;;;;3.50;1.67;;;5.00;79.30;;;;;;5013968;28;20006;-92
2021/01/13 09:46:22;;;;;;;8.43;2.20;;;5.10;79.10;;;;;;5005394;28;20014;-92
2021/01/13 09:49:00;;;;;;;6.57;1.60;;;5.20;78.90;;;;;;4999735;28;20026;-91
2021/01/13 09:51:27;;;;;;;4.78;1.75;;;5.30;78.70;;;;;;4997683;28;20022;-92
2021/01/13 09:53:54;;;;;;;4.32;1.67;;;5.30;78.60;;;;;;5012642;28;20030;-93
2021/01/13 09:56:21;;;;;;;6.47;1.75;;;5.30;78.50;;;;;;5005970;28;20081;-91
2021/01/13 09:58:51;;;;;;;6.53;1.40;;;5.40;78.50;;;;;;4996966;28;20029;-90
2021/01/13 10:01:17;;;;;;;6.68;1.67;;;5.40;78.30;;;;;;5004935;28;20038;-92
2021/01/13 10:03:45;;;;;;;2.90;1.50;;;5.40;78.30;;;;;;5001844;28;20026;-91
2021/01/13 10:06:15;;;;;;;5.75;1.73;;;5.30;78.20;;;;;;5004600;28;20044;-91
2021/01/13 10:08:41;;;;;;;6.57;1.90;;;5.30;78.20;;;;;;5002413;28;20124;-91
2021/01/13 10:11:07;;;;;;;3.80;1.40;;;5.30;78.20;;;;;;5003676;28;20030;-91
2021/01/13 10:13:39;;;;;;;5.00;1.38;;;5.30;78.20;;;;;;5000392;28;20034;-90
2021/01/13 10:16:06;;;;;;;4.05;1.42;;;5.30;78.20;;;;;;5005000;28;20034;-91
2021/01/13 10:18:33;;;;;;;5.80;1.60;;;5.40;78.30;;;;;;5003200;28;20025;-93
2021/01/13 10:21:04;;;;;;;5.72;1.70;;;5.40;78.20;;;;;;5001249;28;20029;-92
2021/01/13 10:23:31;;;;;;;5.70;1.55;;;5.40;78.00;;;;;;4985681;28;20057;-91
2021/01/13 10:26:05;;;;;;;5.63;1.50;;;5.40;77.80;;;;;;4983648;28;20030;-92
2021/01/13 10:28:36;;;;;;;4.72;1.70;;;5.50;77.90;;;;;;4999392;28;20030;-93
2021/01/13 10:31:03;;;;;;;5.35;2.20;;;5.50;77.80;;;;;;5001059;28;20034;-91
2021/01/13 10:33:52;;;;;;;3.63;1.40;;;5.50;77.70;;;;;;5004000;28;20022;-92
2021/01/13 10:36:42;;;;;;;5.00;1.90;;;5.50;77.60;;;;;;4994931;28;20141;-92
2021/01/13 10:39:11;;;;;;;9.50;2.67;;;5.50;77.40;;;;;;4983805;28;20026;-93
2021/01/13 10:41:52;;;;;;;8.15;1.75;;;5.50;77.50;;;;;;4999857;28;20054;-93
2021/01/13 10:44:21;;;;;;;4.70;1.70;;;5.50;77.30;;;;;;5011475;28;20045;-92
2021/01/13 10:46:54;;;;;;;4.45;1.70;;;5.50;77.20;;;;;;4995205;28;20480;-92
2021/01/13 10:49:26;;;;;;;5.45;1.52;;;5.60;77.30;;;;;;5022785;28;20046;-93
2021/01/13 10:51:59;;;;;;;6.57;1.98;;;5.60;77.10;;;;;;5025202;28;20074;-92
2021/01/13 10:54:31;;;;;;;5.18;1.50;;;5.70;77.00;;;;;;5021693;28;20045;-92
2021/01/13 10:57:06;;;;;;;3.30;1.47;;;5.70;76.90;;;;;;5016449;28;20062;-92
2021/01/13 10:59:34;;;;;;;4.03;1.40;;;5.80;76.80;;;;;;4987786;28;20022;-91
2021/01/13 11:02:03;;;;;;;5.45;1.83;;;5.80;76.60;;;;;;5009294;28;20056;-92
2021/01/13 11:04:42;;;;;;;6.45;1.50;;;5.90;76.60;;;;;;5018531;28;20037;-88
2021/01/13 11:07:11;;;;;;;5.30;1.60;;;5.90;76.50;;;;;;4994382;28;20145;-93
2021/01/13 11:09:42;;;;;;;8.90;2.00;;;6.00;76.40;;;;;;4983957;28;20026;-91
2021/01/13 11:12:10;;;;;;;4.10;1.48;;;6.00;76.10;;;;;;4997323;28;20073;-92
2021/01/13 11:14:44;;;;;;;4.15;1.60;;;6.00;76.00;;;;;;4997998;28;20023;-92
2021/01/13 11:17:24;;;;;;;4.13;1.40;;;6.10;76.00;;;;;;4999610;28;20096;-93
2021/01/13 11:19:53;;;;;;;8.25;1.65;;;6.10;75.90;;;;;;4994083;28;20017;-95
2021/01/13 11:22:20;;;;;;;6.72;1.85;;;6.10;75.70;;;;;;4991013;28;20536;-91
2021/01/13 11:24:48;;;;;;;4.60;1.83;;;6.10;75.80;;;;;;4994124;28;20054;-92
2021/01/13 11:27:22;;;;;;;4.85;1.27;;;6.10;75.80;;;;;;4999855;28;20420;-91
2021/01/13 11:29:53;;;;;;;5.60;1.60;;;6.20;75.70;;;;;;4995704;28;20058;-92
2021/01/13 11:32:28;;;;;;;4.20;1.38;;;6.30;75.70;;;;;;4994085;28;20539;-91
2021/01/13 11:34:54;;;;;;;4.25;1.55;;;6.30;75.60;;;;;;4983090;28;20053;-91
2021/01/13 11:37:22;;;;;;;4.20;1.77;;;6.30;75.60;;;;;;5002990;28;20044;-91
2021/01/13 11:40:05;;;;;;;6.70;1.83;;;6.40;75.50;;;;;;4998221;28;20484;-91
2021/01/13 11:43:42;;;;;;;7.85;2.20;;;6.40;75.30;;;;;;4998070;28;20048;-89
2021/01/13 11:46:17;;;;;;;3.88;1.30;;;6.30;75.10;;;;;;4897875;29;20036;-92
2021/01/13 11:49:09;;;;;;;6.80;1.60;;;6.40;75.40;;;;;;4963787;28;20157;-92
2021/01/13 11:51:41;;;;;;;4.15;1.52;;;6.30;75.10;;;;;;4986677;28;20041;-90
2021/01/13 11:54:07;;;;;;;5.53;1.40;;;6.40;75.20;;;;;;4993075;28;20491;-90
2021/01/13 11:56:32;;;;;;;4.35;1.50;;;6.40;75.10;;;;;;4973919;28;20069;-90
2021/01/13 11:58:58;;;;;;;7.53;1.70;;;6.40;75.10;;;;;;4990135;28;20023;-88
2021/01/13 12:01:25;;;;;;;4.18;1.50;;;6.50;75.00;;;;;;4990984;28;20027;-93
2021/01/13 12:04:07;;;;;;;5.38;1.67;;;6.40;74.80;;;;;;4973412;28;20026;-93
2021/01/13 12:06:42;;;;;;;4.22;1.40;;;6.60;74.90;;;;;;4982903;28;20094;-94
2021/01/13 12:09:17;;;;;;;4.85;1.30;;;6.50;74.60;;;;;;4988550;28;20049;-94
2021/01/13 12:11:43;;;;;;;5.80;1.40;;;6.50;74.30;;;;;;4990460;28;20073;-91
2021/01/13 12:14:09;;;;;;;7.10;1.40;;;6.60;74.00;;;;;;4973996;28;20469;-92
2021/01/13 12:16:35;;;;;;;6.97;1.58;;;6.60;73.60;;;;;;4993185;28;20485;-92
2021/01/13 12:19:01;;;;;;;3.65;1.13;;;6.70;73.50;;;;;;4992920;28;20039;-93
2021/01/13 12:21:30;;;;;;;3.78;1.15;;;6.90;73.50;;;;;;5009469;28;20037;-92
2021/01/13 12:24:35;;;;;;;8.50;1.85;;;6.90;73.20;;;;;;4971823;28;20027;-92
2021/01/13 12:27:18;;;;;;;3.95;1.20;;;7.00;72.40;;;;;;4992436;28;20026;-92
2021/01/13 12:29:44;;;;;;;5.90;1.70;;;7.10;72.10;;;;;;4994734;28;20026;-91
2021/01/13 12:32:10;;;;;;;5.82;1.20;;;7.10;71.30;;;;;;4979894;28;20497;-92
2021/01/13 12:34:35;;;;;;;5.18;1.40;;;7.30;71.00;;;;;;4993452;28;20129;-90
2021/01/13 12:37:06;;;;;;;4.18;1.48;;;7.40;70.70;;;;;;4974124;28;20081;-93
2021/01/13 12:39:33;;;;;;;8.07;2.00;;;8.30;69.20;;;;;;4994067;28;20022;-91
2021/01/13 12:42:00;;;;;;;3.25;1.10;;;8.40;68.00;;;;;;5000494;28;20029;-92
2021/01/13 12:44:26;;;;;;;5.88;1.50;;;8.20;67.40;;;;;;4993632;28;20030;-90
2021/01/13 12:46:55;;;;;;;4.60;1.40;;;8.20;66.90;;;;;;4993410;28;20023;-90
2021/01/13 12:49:22;;;;;;;3.78;1.58;;;8.40;66.80;;;;;;4977324;28;20112;-91
2021/01/13 12:51:51;;;;;;;6.82;1.67;;;8.40;66.60;;;;;;4996121;28;20046;-91
2021/01/13 12:54:17;;;;;;;5.20;1.55;;;8.70;65.30;;;;;;5001958;28;20061;-92
2021/01/13 12:56:43;;;;;;;3.67;1.23;;;8.90;65.30;;;;;;4977301;28;20046;-93
2021/01/13 12:59:08;;;;;;;5.53;1.60;;;9.10;64.70;;;;;;5006756;28;20014;-95
2021/01/13 13:01:38;;;;;;;7.18;1.55;;;9.50;64.10;;;;;;4978176;28;20109;-95
2021/01/13 13:04:04;;;;;;;5.53;1.70;;;10.10;62.70;;;;;;4980511;28;20014;-94
2021/01/13 13:06:32;;;;;;;6.55;1.30;;;10.90;61.40;;;;;;4996340;28;20022;-95
2021/01/13 13:09:10;;;;;;;4.53;1.30;;;11.20;60.50;;;;;;4978929;28;20011;-94
2021/01/13 13:11:38;;;;;;;5.00;1.50;;;11.60;59.60;;;;;;4996166;28;20029;-95
2021/01/13 13:14:05;;;;;;;3.90;1.20;;;12.00;58.50;;;;;;4973849;28;20125;-96
2021/01/13 13:16:33;;;;;;;4.25;1.48;;;12.10;58.40;;;;;;4990847;28;20467;-95
2021/01/13 13:19:01;;;;;;;5.95;1.60;;;12.20;57.60;;;;;;4994980;28;20030;-96
2021/01/13 13:21:30;;;;;;;2.83;1.20;;;12.20;56.70;;;;;;4999760;28;20104;-94
2021/01/13 13:23:58;;;;;;;4.07;1.38;;;12.20;56.60;;;;;;5003776;28;20025;-92
2021/01/13 13:26:23;;;;;;;4.28;1.40;;;12.10;56.00;;;;;;5004473;28;20030;-93